Home   Weather   Utah Beach   Past weeks
Flag for France

Past Weather in Utah Beach, Manche, France — Yesterday and Last 2 Weeks

Currently: 63 °F. Passing clouds. (Weather station: Cherbourg / Maupertus, France). See more current weather

Past Weather in Utah Beach — Graph

°F

Utah Beach Temperature Yesterday

Maximum temperature yesterday: 64 °F (at 6:00 pm)
Minimum temperature yesterday: 57 °F (at 6:30 am)
Average temperature yesterday: 60 °F

High & Low Weather Summary for the Past Weeks

 TemperatureHumidityPressure
High77 °F (Sep 6, 5:00 pm)100% (Sep 8, 10:30 pm)30.45 "Hg (Sep 8, 10:30 pm)
Low52 °F (Sep 12, 8:00 am)51% (Sep 7, 2:30 pm)29.77 "Hg (Sep 9, 9:30 am)
Average62 °F84%30.01 "Hg
* Reported Sep 6 5:00 pm — Sep 21 5:30 pm, Utah Beach. Weather by CustomWeather, © 2021

Note: Actual official high and low records may vary slightly from our data, if they occured in-between our weather recording intervals... More about our weather records

Utah Beach Weather History for the Previous 24 Hours

Scroll right to see more
 ConditionsComfort  
Time TempWeatherWind HumidityBarometerVisibility
5:30 pm
Tue, Sep 21
64 °FPassing clouds.7 mph73%30.42 "HgN/A
5:00 pm64 °FScattered clouds.7 mph73%30.45 "HgN/A
4:30 pm64 °FPassing clouds.7 mph73%30.45 "HgN/A
4:00 pm64 °FPassing clouds.7 mph73%30.45 "HgN/A
3:30 pm64 °FBroken clouds.8 mph73%30.45 "HgN/A
3:00 pm63 °FPartly sunny.7 mph73%30.45 "HgN/A
2:30 pm64 °FScattered clouds.8 mph68%30.45 "HgN/A
2:00 pm64 °FPartly sunny.8 mph73%30.45 "HgN/A
1:30 pm66 °FPartly sunny.8 mph64%30.45 "HgN/A
1:00 pm64 °FScattered clouds.7 mph73%30.45 "HgN/A
12:30 pm64 °FPartly sunny.8 mph73%30.45 "HgN/A
12:00 pm64 °FScattered clouds.8 mph73%30.45 "HgN/A
11:00 am63 °FPartly sunny.7 mph77%30.45 "HgN/A
10:30 am61 °FMostly cloudy.6 mph88%30.45 "HgN/A
10:00 am59 °FMostly cloudy.5 mph94%30.42 "HgN/A
9:30 am59 °FMostly cloudy.3 mph94%30.42 "Hg4 mi
9:00 am57 °FPartly sunny.3 mph100%30.42 "Hg4 mi
8:30 am57 °FFog.3 mph94%30.42 "Hg2 mi
8:00 am55 °FFog.3 mph100%30.39 "Hg2 mi
7:30 am57 °FFog.3 mph94%30.39 "Hg3 mi
7:00 am57 °FFog.2 mph94%30.39 "Hg1 mi
6:30 am57 °FFog.3 mph94%30.39 "Hg2 mi
6:00 am57 °FFog.3 mph94%30.36 "Hg2 mi
5:30 am59 °FFog.3 mph94%30.36 "Hg2 mi
5:00 am59 °FPassing clouds.5 mph94%30.36 "Hg4 mi
4:30 am59 °FPassing clouds.6 mph94%30.36 "HgN/A
4:00 am61 °FOvercast.7 mph88%30.36 "HgN/A
3:30 am61 °FMostly cloudy.6 mph88%30.36 "HgN/A
2:30 am59 °FPassing clouds.3 mph94%30.36 "HgN/A
2:00 am57 °FClear.5 mph94%30.36 "Hg10 mi
1:30 am57 °FClear.5 mph94%30.36 "Hg10 mi
1:00 am57 °FClear.3 mph94%30.36 "Hg10 mi
12:30 am57 °FClear.3 mph94%30.36 "Hg10 mi
12:00 am57 °FPassing clouds.3 mph94%30.36 "HgN/A
11:30 pm
Mon, Sep 20
59 °FPassing clouds.2 mph88%30.33 "HgN/A
11:00 pm59 °FClear.3 mph88%30.33 "Hg10 mi
10:30 pm59 °FPassing clouds.3 mph88%30.33 "HgN/A
10:00 pm57 °FPassing clouds.5 mph94%30.33 "HgN/A
9:30 pm57 °FPassing clouds.5 mph88%30.30 "Hg5 mi
9:00 pm57 °FPassing clouds.5 mph88%30.30 "HgN/A
8:30 pm59 °FClear.6 mph82%30.30 "Hg10 mi
8:00 pm61 °FSunny.6 mph77%30.27 "Hg10 mi
7:30 pm63 °FPassing clouds.7 mph68%30.27 "HgN/A
7:00 pm63 °FPassing clouds.8 mph73%30.27 "HgN/A
6:30 pm63 °FSunny.9 mph73%30.27 "Hg10 mi
6:00 pm64 °FPassing clouds.8 mph68%30.27 "HgN/A
Weather by CustomWeather, © 2021

See weather overview